All City Stadium (Denver), Colorado
Current Conditions -  °F | °C
As of 8:53 PM on Wednesday 28 Jan 2015 (Local Time) from KAPA Reporting Station
Scattered Clouds Scattered Clouds  
Wind Chill: -2°   Ceiling: Unl
Heat Index:   Visibility: 10mi
Dew Point:   Wind: 9mph
Humidity: 86%   Direction: 110°ESE
Pressure: 30.27"   Gusts: NA
Location:  39.69109°N, 104.9663°W
Report Text: KAPA 290353Z 11008KT 10SM SCT085 02/00 A3027 RMK AO2 SLP250 T00220000
Loading
Personal Weather Stations






























Interactive Weather Map New forecast layout! Learn more

10-Day Weather Forecast

Advertisements
Track Severe Weather on mobile